sensor_id;sensor_type;location;lat;lon;timestamp;P1;durP1;ratioP1;P2;durP2;ratioP2
11447;SDS011;43755;49.736;8.734;2023-06-26T00:01:19;4.30;;;3.90;;
11447;SDS011;43755;49.736;8.734;2023-06-26T00:03:21;4.30;;;4.00;;
11447;SDS011;43755;49.736;8.734;2023-06-26T00:05:23;4.50;;;4.20;;
11447;SDS011;43755;49.736;8.734;2023-06-26T00:07:24;4.60;;;4.27;;
11447;SDS011;43755;49.736;8.734;2023-06-26T00:09:27;4.57;;;4.27;;
11447;SDS011;43755;49.736;8.734;2023-06-26T00:11:28;4.03;;;3.80;;
11447;SDS011;43755;49.736;8.734;2023-06-26T00:13:33;4.03;;;3.73;;
11447;SDS011;43755;49.736;8.734;2023-06-26T00:15:35;4.20;;;3.90;;
11447;SDS011;43755;49.736;8.734;2023-06-26T00:17:36;4.57;;;4.10;;
11447;SDS011;43755;49.736;8.734;2023-06-26T00:19:38;4.40;;;4.10;;
11447;SDS011;43755;49.736;8.734;2023-06-26T00:21:39;3.97;;;3.73;;
11447;SDS011;43755;49.736;8.734;2023-06-26T00:23:41;4.40;;;4.10;;
11447;SDS011;43755;49.736;8.734;2023-06-26T00:25:44;4.80;;;4.40;;
11447;SDS011;43755;49.736;8.734;2023-06-26T00:27:45;4.37;;;4.10;;
11447;SDS011;43755;49.736;8.734;2023-06-26T00:29:46;4.10;;;3.73;;
11447;SDS011;43755;49.736;8.734;2023-06-26T00:31:48;4.33;;;4.03;;
11447;SDS011;43755;49.736;8.734;2023-06-26T00:33:49;4.15;;;3.85;;
11447;SDS011;43755;49.736;8.734;2023-06-26T00:35:51;4.37;;;4.07;;
11447;SDS011;43755;49.736;8.734;2023-06-26T00:37:52;4.40;;;4.00;;
11447;SDS011;43755;49.736;8.734;2023-06-26T00:39:53;4.67;;;4.27;;
11447;SDS011;43755;49.736;8.734;2023-06-26T00:41:56;4.00;;;3.80;;
11447;SDS011;43755;49.736;8.734;2023-06-26T00:43:57;4.23;;;3.93;;
11447;SDS011;43755;49.736;8.734;2023-06-26T00:45:59;4.07;;;3.73;;
11447;SDS011;43755;49.736;8.734;2023-06-26T00:48:00;4.27;;;3.97;;
11447;SDS011;43755;49.736;8.734;2023-06-26T00:50:02;4.37;;;4.07;;
11447;SDS011;43755;49.736;8.734;2023-06-26T00:52:05;5.17;;;4.07;;
11447;SDS011;43755;49.736;8.734;2023-06-26T00:54:07;3.93;;;3.70;;
11447;SDS011;43755;49.736;8.734;2023-06-26T00:56:08;4.63;;;4.23;;
11447;SDS011;43755;49.736;8.734;2023-06-26T00:58:12;4.37;;;3.97;;
11447;SDS011;43755;49.736;8.734;2023-06-26T01:00:14;4.57;;;4.17;;
11447;SDS011;43755;49.736;8.734;2023-06-26T01:02:16;4.63;;;4.30;;
11447;SDS011;43755;49.736;8.734;2023-06-26T01:04:20;4.18;;;3.85;;
11447;SDS011;43755;49.736;8.734;2023-06-26T01:06:22;4.17;;;3.87;;
11447;SDS011;43755;49.736;8.734;2023-06-26T01:08:25;5.00;;;4.32;;
11447;SDS011;43755;49.736;8.734;2023-06-26T01:10:28;4.37;;;3.97;;
11447;SDS011;43755;49.736;8.734;2023-06-26T01:12:29;4.57;;;4.27;;
11447;SDS011;43755;49.736;8.734;2023-06-26T01:14:32;5.35;;;4.85;;
11447;SDS011;43755;49.736;8.734;2023-06-26T01:16:35;4.72;;;4.35;;
11447;SDS011;43755;49.736;8.734;2023-06-26T01:18:38;4.60;;;4.20;;
11447;SDS011;43755;49.736;8.734;2023-06-26T01:20:41;4.50;;;4.20;;
11447;SDS011;43755;49.736;8.734;2023-06-26T01:22:45;4.65;;;4.25;;
11447;SDS011;43755;49.736;8.734;2023-06-26T01:24:54;4.05;;;3.75;;
11447;SDS011;43755;49.736;8.734;2023-06-26T01:27:04;4.68;;;4.32;;
11447;SDS011;43755;49.736;8.734;2023-06-26T01:29:07;4.45;;;4.15;;
11447;SDS011;43755;49.736;8.734;2023-06-26T01:31:11;4.50;;;4.10;;
11447;SDS011;43755;49.736;8.734;2023-06-26T01:33:14;4.57;;;4.28;;
11447;SDS011;43755;49.736;8.734;2023-06-26T01:35:16;4.27;;;3.97;;
11447;SDS011;43755;49.736;8.734;2023-06-26T01:37:18;4.70;;;4.20;;
11447;SDS011;43755;49.736;8.734;2023-06-26T01:39:20;4.57;;;4.28;;
11447;SDS011;43755;49.736;8.734;2023-06-26T01:41:21;4.65;;;4.35;;
11447;SDS011;43755;49.736;8.734;2023-06-26T01:43:26;4.63;;;4.33;;
11447;SDS011;43755;49.736;8.734;2023-06-26T01:45:32;4.25;;;3.95;;
11447;SDS011;43755;49.736;8.734;2023-06-26T01:47:34;6.93;;;4.40;;
11447;SDS011;43755;49.736;8.734;2023-06-26T01:49:43;4.60;;;4.20;;
11447;SDS011;43755;49.736;8.734;2023-06-26T01:51:51;4.47;;;4.17;;
11447;SDS011;43755;49.736;8.734;2023-06-26T01:53:56;4.47;;;4.18;;
11447;SDS011;43755;49.736;8.734;2023-06-26T01:56:00;4.53;;;4.22;;
11447;SDS011;43755;49.736;8.734;2023-06-26T01:58:07;4.60;;;4.30;;
11447;SDS011;43755;49.736;8.734;2023-06-26T02:00:12;4.90;;;4.40;;
11447;SDS011;43755;49.736;8.734;2023-06-26T02:02:17;4.30;;;4.00;;
11447;SDS011;43755;49.736;8.734;2023-06-26T02:04:19;4.50;;;4.20;;
11447;SDS011;43755;49.736;8.734;2023-06-26T02:06:20;4.70;;;4.30;;
11447;SDS011;43755;49.736;8.734;2023-06-26T02:08:22;4.72;;;4.43;;
11447;SDS011;43755;49.736;8.734;2023-06-26T02:10:23;4.70;;;4.40;;
11447;SDS011;43755;49.736;8.734;2023-06-26T02:12:25;4.75;;;4.35;;
11447;SDS011;43755;49.736;8.734;2023-06-26T02:14:26;4.83;;;4.53;;
11447;SDS011;43755;49.736;8.734;2023-06-26T02:16:29;4.93;;;4.53;;
11447;SDS011;43755;49.736;8.734;2023-06-26T02:18:30;4.60;;;4.30;;
11447;SDS011;43755;49.736;8.734;2023-06-26T02:20:32;4.70;;;4.30;;
11447;SDS011;43755;49.736;8.734;2023-06-26T02:22:33;4.60;;;4.20;;
11447;SDS011;43755;49.736;8.734;2023-06-26T02:24:35;6.32;;;4.50;;
11447;SDS011;43755;49.736;8.734;2023-06-26T02:26:36;5.13;;;4.72;;
11447;SDS011;43755;49.736;8.734;2023-06-26T02:28:37;4.90;;;4.50;;
11447;SDS011;43755;49.736;8.734;2023-06-26T02:30:39;4.63;;;4.25;;
11447;SDS011;43755;49.736;8.734;2023-06-26T02:32:41;5.15;;;4.25;;
11447;SDS011;43755;49.736;8.734;2023-06-26T02:34:43;4.43;;;4.13;;
11447;SDS011;43755;49.736;8.734;2023-06-26T02:36:44;4.95;;;4.45;;
11447;SDS011;43755;49.736;8.734;2023-06-26T02:38:46;4.88;;;4.47;;
11447;SDS011;43755;49.736;8.734;2023-06-26T02:40:47;4.37;;;4.00;;
11447;SDS011;43755;49.736;8.734;2023-06-26T02:42:48;4.47;;;4.07;;
11447;SDS011;43755;49.736;8.734;2023-06-26T02:44:50;4.50;;;4.10;;
11447;SDS011;43755;49.736;8.734;2023-06-26T02:46:51;4.70;;;4.40;;
11447;SDS011;43755;49.736;8.734;2023-06-26T02:48:54;4.40;;;4.03;;
11447;SDS011;43755;49.736;8.734;2023-06-26T02:50:56;4.65;;;4.28;;
11447;SDS011;43755;49.736;8.734;2023-06-26T02:52:57;4.82;;;4.53;;
11447;SDS011;43755;49.736;8.734;2023-06-26T02:54:59;5.07;;;4.68;;
11447;SDS011;43755;49.736;8.734;2023-06-26T02:57:00;4.88;;;4.57;;
11447;SDS011;43755;49.736;8.734;2023-06-26T02:59:02;4.70;;;4.40;;
11447;SDS011;43755;49.736;8.734;2023-06-26T03:01:03;5.68;;;4.60;;
11447;SDS011;43755;49.736;8.734;2023-06-26T03:03:04;4.72;;;4.43;;
11447;SDS011;43755;49.736;8.734;2023-06-26T03:05:07;5.35;;;4.85;;
11447;SDS011;43755;49.736;8.734;2023-06-26T03:07:09;5.28;;;4.57;;
11447;SDS011;43755;49.736;8.734;2023-06-26T03:09:10;4.75;;;4.35;;
11447;SDS011;43755;49.736;8.734;2023-06-26T03:11:12;4.78;;;4.47;;
11447;SDS011;43755;49.736;8.734;2023-06-26T03:13:13;5.13;;;4.75;;
11447;SDS011;43755;49.736;8.734;2023-06-26T03:15:14;4.90;;;4.50;;
11447;SDS011;43755;49.736;8.734;2023-06-26T03:17:16;5.25;;;4.75;;
11447;SDS011;43755;49.736;8.734;2023-06-26T03:19:17;5.00;;;4.60;;
11447;SDS011;43755;49.736;8.734;2023-06-26T03:21:20;5.38;;;4.97;;
11447;SDS011;43755;49.736;8.734;2023-06-26T03:23:22;4.90;;;4.50;;
11447;SDS011;43755;49.736;8.734;2023-06-26T03:25:24;5.00;;;4.60;;
11447;SDS011;43755;49.736;8.734;2023-06-26T03:27:25;7.97;;;5.07;;
11447;SDS011;43755;49.736;8.734;2023-06-26T03:29:27;5.28;;;4.72;;
11447;SDS011;43755;49.736;8.734;2023-06-26T03:31:29;5.85;;;4.78;;
11447;SDS011;43755;49.736;8.734;2023-06-26T03:33:31;5.47;;;4.88;;
11447;SDS011;43755;49.736;8.734;2023-06-26T03:35:32;6.22;;;5.10;;
11447;SDS011;43755;49.736;8.734;2023-06-26T03:37:35;5.18;;;4.78;;
11447;SDS011;43755;49.736;8.734;2023-06-26T03:39:36;4.82;;;4.45;;
11447;SDS011;43755;49.736;8.734;2023-06-26T03:41:38;5.32;;;4.82;;
11447;SDS011;43755;49.736;8.734;2023-06-26T03:43:39;4.93;;;4.50;;
11447;SDS011;43755;49.736;8.734;2023-06-26T03:45:40;4.50;;;4.20;;
11447;SDS011;43755;49.736;8.734;2023-06-26T03:47:42;4.97;;;4.60;;
11447;SDS011;43755;49.736;8.734;2023-06-26T03:49:43;5.10;;;4.60;;
11447;SDS011;43755;49.736;8.734;2023-06-26T03:51:45;5.18;;;4.38;;
11447;SDS011;43755;49.736;8.734;2023-06-26T03:53:48;4.95;;;4.55;;
11447;SDS011;43755;49.736;8.734;2023-06-26T03:55:49;5.05;;;4.65;;
11447;SDS011;43755;49.736;8.734;2023-06-26T03:57:50;4.40;;;4.10;;
11447;SDS011;43755;49.736;8.734;2023-06-26T03:59:52;4.90;;;4.40;;
11447;SDS011;43755;49.736;8.734;2023-06-26T04:01:53;4.82;;;4.40;;
11447;SDS011;43755;49.736;8.734;2023-06-26T04:03:55;4.83;;;4.43;;
11447;SDS011;43755;49.736;8.734;2023-06-26T04:05:56;4.85;;;4.45;;
11447;SDS011;43755;49.736;8.734;2023-06-26T04:07:57;4.83;;;4.43;;
11447;SDS011;43755;49.736;8.734;2023-06-26T04:10:00;4.83;;;4.43;;
11447;SDS011;43755;49.736;8.734;2023-06-26T04:12:02;6.50;;;4.90;;
11447;SDS011;43755;49.736;8.734;2023-06-26T04:14:04;5.17;;;4.77;;
11447;SDS011;43755;49.736;8.734;2023-06-26T04:16:06;4.50;;;4.20;;
11447;SDS011;43755;49.736;8.734;2023-06-26T04:18:07;5.18;;;4.57;;
11447;SDS011;43755;49.736;8.734;2023-06-26T04:20:09;4.50;;;4.20;;
11447;SDS011;43755;49.736;8.734;2023-06-26T04:22:11;4.72;;;4.28;;
11447;SDS011;43755;49.736;8.734;2023-06-26T04:24:12;6.53;;;4.87;;
11447;SDS011;43755;49.736;8.734;2023-06-26T04:26:15;7.03;;;4.40;;
11447;SDS011;43755;49.736;8.734;2023-06-26T04:28:16;6.43;;;4.67;;
11447;SDS011;43755;49.736;8.734;2023-06-26T04:30:18;6.25;;;4.60;;
11447;SDS011;43755;49.736;8.734;2023-06-26T04:32:19;4.50;;;4.10;;
11447;SDS011;43755;49.736;8.734;2023-06-26T04:34:20;5.78;;;4.78;;
11447;SDS011;43755;49.736;8.734;2023-06-26T04:36:22;5.00;;;4.60;;
11447;SDS011;43755;49.736;8.734;2023-06-26T04:38:28;5.93;;;4.83;;
11447;SDS011;43755;49.736;8.734;2023-06-26T04:40:30;4.87;;;4.47;;
11447;SDS011;43755;49.736;8.734;2023-06-26T04:42:32;5.13;;;4.70;;
11447;SDS011;43755;49.736;8.734;2023-06-26T04:44:34;4.93;;;4.53;;
11447;SDS011;43755;49.736;8.734;2023-06-26T04:46:37;5.10;;;4.70;;
11447;SDS011;43755;49.736;8.734;2023-06-26T04:48:41;4.77;;;4.40;;
11447;SDS011;43755;49.736;8.734;2023-06-26T04:50:42;5.00;;;4.53;;
11447;SDS011;43755;49.736;8.734;2023-06-26T04:52:52;5.63;;;4.50;;
11447;SDS011;43755;49.736;8.734;2023-06-26T04:54:54;6.60;;;6.00;;
11447;SDS011;43755;49.736;8.734;2023-06-26T04:56:57;5.47;;;4.97;;
11447;SDS011;43755;49.736;8.734;2023-06-26T04:59:01;6.07;;;4.77;;
11447;SDS011;43755;49.736;8.734;2023-06-26T05:01:03;7.53;;;4.87;;
11447;SDS011;43755;49.736;8.734;2023-06-26T05:03:06;5.87;;;4.33;;
11447;SDS011;43755;49.736;8.734;2023-06-26T05:05:08;4.57;;;4.17;;
11447;SDS011;43755;49.736;8.734;2023-06-26T05:07:10;5.47;;;4.50;;
11447;SDS011;43755;49.736;8.734;2023-06-26T05:09:12;4.70;;;4.30;;
11447;SDS011;43755;49.736;8.734;2023-06-26T05:11:13;4.70;;;4.27;;
11447;SDS011;43755;49.736;8.734;2023-06-26T05:13:15;4.53;;;4.13;;
11447;SDS011;43755;49.736;8.734;2023-06-26T05:15:19;4.60;;;4.30;;
11447;SDS011;43755;49.736;8.734;2023-06-26T05:17:20;4.47;;;4.07;;
11447;SDS011;43755;49.736;8.734;2023-06-26T05:19:21;4.53;;;4.23;;
11447;SDS011;43755;49.736;8.734;2023-06-26T05:21:23;4.80;;;4.50;;
11447;SDS011;43755;49.736;8.734;2023-06-26T05:23:25;4.90;;;4.60;;
11447;SDS011;43755;49.736;8.734;2023-06-26T05:25:27;4.70;;;4.40;;
11447;SDS011;43755;49.736;8.734;2023-06-26T05:27:30;5.47;;;4.70;;
11447;SDS011;43755;49.736;8.734;2023-06-26T05:29:32;4.93;;;4.53;;
11447;SDS011;43755;49.736;8.734;2023-06-26T05:31:36;5.37;;;4.50;;
11447;SDS011;43755;49.736;8.734;2023-06-26T05:33:42;4.60;;;4.30;;
11447;SDS011;43755;49.736;8.734;2023-06-26T05:35:45;4.50;;;4.10;;
11447;SDS011;43755;49.736;8.734;2023-06-26T05:37:47;4.90;;;4.50;;
11447;SDS011;43755;49.736;8.734;2023-06-26T05:39:50;5.17;;;4.77;;
11447;SDS011;43755;49.736;8.734;2023-06-26T05:41:52;5.30;;;4.80;;
11447;SDS011;43755;49.736;8.734;2023-06-26T05:43:54;4.93;;;4.53;;
11447;SDS011;43755;49.736;8.734;2023-06-26T05:45:55;5.50;;;5.10;;
11447;SDS011;43755;49.736;8.734;2023-06-26T05:47:59;5.30;;;4.90;;
11447;SDS011;43755;49.736;8.734;2023-06-26T05:50:01;5.50;;;4.97;;
11447;SDS011;43755;49.736;8.734;2023-06-26T05:52:03;5.43;;;4.93;;
11447;SDS011;43755;49.736;8.734;2023-06-26T05:54:05;5.67;;;5.27;;
11447;SDS011;43755;49.736;8.734;2023-06-26T05:56:07;5.20;;;4.80;;
11447;SDS011;43755;49.736;8.734;2023-06-26T05:58:10;5.67;;;5.17;;
11447;SDS011;43755;49.736;8.734;2023-06-26T06:00:12;5.03;;;4.63;;
11447;SDS011;43755;49.736;8.734;2023-06-26T06:02:14;8.67;;;5.63;;
11447;SDS011;43755;49.736;8.734;2023-06-26T06:04:17;6.63;;;5.33;;
11447;SDS011;43755;49.736;8.734;2023-06-26T06:06:19;5.43;;;4.93;;
11447;SDS011;43755;49.736;8.734;2023-06-26T06:08:20;5.50;;;5.00;;
11447;SDS011;43755;49.736;8.734;2023-06-26T06:10:22;5.37;;;4.97;;
11447;SDS011;43755;49.736;8.734;2023-06-26T06:12:23;5.90;;;5.30;;
11447;SDS011;43755;49.736;8.734;2023-06-26T06:14:24;5.80;;;5.30;;
11447;SDS011;43755;49.736;8.734;2023-06-26T06:16:26;5.60;;;5.10;;
11447;SDS011;43755;49.736;8.734;2023-06-26T06:18:29;6.17;;;5.63;;
11447;SDS011;43755;49.736;8.734;2023-06-26T06:20:31;7.10;;;5.53;;
11447;SDS011;43755;49.736;8.734;2023-06-26T06:22:33;6.13;;;5.33;;
11447;SDS011;43755;49.736;8.734;2023-06-26T06:24:34;6.17;;;5.67;;
11447;SDS011;43755;49.736;8.734;2023-06-26T06:26:36;5.97;;;5.57;;
11447;SDS011;43755;49.736;8.734;2023-06-26T06:28:37;7.10;;;5.33;;
11447;SDS011;43755;49.736;8.734;2023-06-26T06:30:39;5.97;;;5.30;;
11447;SDS011;43755;49.736;8.734;2023-06-26T06:32:40;5.43;;;4.93;;
11447;SDS011;43755;49.736;8.734;2023-06-26T06:34:41;6.07;;;5.67;;
11447;SDS011;43755;49.736;8.734;2023-06-26T06:36:44;5.57;;;5.07;;
11447;SDS011;43755;49.736;8.734;2023-06-26T06:38:46;5.80;;;5.30;;
11447;SDS011;43755;49.736;8.734;2023-06-26T06:40:47;5.63;;;4.90;;
11447;SDS011;43755;49.736;8.734;2023-06-26T06:42:49;7.07;;;5.17;;
11447;SDS011;43755;49.736;8.734;2023-06-26T06:44:50;7.57;;;5.53;;
11447;SDS011;43755;49.736;8.734;2023-06-26T06:46:51;6.20;;;5.60;;
11447;SDS011;43755;49.736;8.734;2023-06-26T06:48:53;5.80;;;5.30;;
11447;SDS011;43755;49.736;8.734;2023-06-26T06:50:54;5.77;;;5.27;;
11447;SDS011;43755;49.736;8.734;2023-06-26T06:52:57;5.57;;;5.03;;
11447;SDS011;43755;49.736;8.734;2023-06-26T06:54:58;5.90;;;5.40;;
11447;SDS011;43755;49.736;8.734;2023-06-26T06:57:05;5.70;;;5.10;;
11447;SDS011;43755;49.736;8.734;2023-06-26T06:59:06;6.70;;;5.20;;
11447;SDS011;43755;49.736;8.734;2023-06-26T07:01:08;6.17;;;5.57;;
11447;SDS011;43755;49.736;8.734;2023-06-26T07:03:10;6.47;;;5.30;;
11447;SDS011;43755;49.736;8.734;2023-06-26T07:05:11;5.80;;;5.33;;
11447;SDS011;43755;49.736;8.734;2023-06-26T07:07:17;6.03;;;5.30;;
11447;SDS011;43755;49.736;8.734;2023-06-26T07:09:20;5.90;;;5.40;;
11447;SDS011;43755;49.736;8.734;2023-06-26T07:11:22;6.23;;;5.73;;
11447;SDS011;43755;49.736;8.734;2023-06-26T07:13:23;6.10;;;5.50;;
11447;SDS011;43755;49.736;8.734;2023-06-26T07:15:25;5.87;;;5.37;;
11447;SDS011;43755;49.736;8.734;2023-06-26T07:17:26;6.67;;;5.40;;
11447;SDS011;43755;49.736;8.734;2023-06-26T07:19:28;6.40;;;5.17;;
11447;SDS011;43755;49.736;8.734;2023-06-26T07:21:29;5.73;;;5.13;;
11447;SDS011;43755;49.736;8.734;2023-06-26T07:23:30;5.60;;;5.20;;
11447;SDS011;43755;49.736;8.734;2023-06-26T07:25:33;5.67;;;5.17;;
11447;SDS011;43755;49.736;8.734;2023-06-26T07:27:35;5.60;;;5.20;;
11447;SDS011;43755;49.736;8.734;2023-06-26T07:29:36;5.30;;;4.90;;
11447;SDS011;43755;49.736;8.734;2023-06-26T07:31:38;5.43;;;4.97;;
11447;SDS011;43755;49.736;8.734;2023-06-26T07:33:39;5.40;;;4.90;;
11447;SDS011;43755;49.736;8.734;2023-06-26T07:35:41;5.83;;;5.43;;
11447;SDS011;43755;49.736;8.734;2023-06-26T07:37:42;5.77;;;5.27;;
11447;SDS011;43755;49.736;8.734;2023-06-26T07:39:44;5.80;;;5.30;;
11447;SDS011;43755;49.736;8.734;2023-06-26T07:41:46;5.93;;;5.53;;
11447;SDS011;43755;49.736;8.734;2023-06-26T07:43:48;5.93;;;4.83;;
11447;SDS011;43755;49.736;8.734;2023-06-26T07:45:49;5.33;;;4.93;;
11447;SDS011;43755;49.736;8.734;2023-06-26T07:47:53;6.47;;;4.93;;
11447;SDS011;43755;49.736;8.734;2023-06-26T07:49:54;5.20;;;4.70;;
11447;SDS011;43755;49.736;8.734;2023-06-26T07:51:56;5.50;;;5.10;;
11447;SDS011;43755;49.736;8.734;2023-06-26T07:53:57;6.00;;;5.50;;
11447;SDS011;43755;49.736;8.734;2023-06-26T07:55:58;6.10;;;5.60;;
11447;SDS011;43755;49.736;8.734;2023-06-26T07:58:01;5.93;;;5.47;;
11447;SDS011;43755;49.736;8.734;2023-06-26T08:00:03;5.20;;;4.90;;
11447;SDS011;43755;49.736;8.734;2023-06-26T08:02:07;5.57;;;5.17;;
11447;SDS011;43755;49.736;8.734;2023-06-26T08:04:08;6.13;;;5.60;;
11447;SDS011;43755;49.736;8.734;2023-06-26T08:06:10;6.07;;;5.33;;
11447;SDS011;43755;49.736;8.734;2023-06-26T08:08:12;5.97;;;5.47;;
11447;SDS011;43755;49.736;8.734;2023-06-26T08:10:13;6.07;;;5.57;;
11447;SDS011;43755;49.736;8.734;2023-06-26T08:12:15;6.23;;;5.67;;
11447;SDS011;43755;49.736;8.734;2023-06-26T08:14:18;5.90;;;5.50;;
11447;SDS011;43755;49.736;8.734;2023-06-26T08:16:20;6.10;;;5.60;;
11447;SDS011;43755;49.736;8.734;2023-06-26T08:18:21;5.90;;;5.40;;
11447;SDS011;43755;49.736;8.734;2023-06-26T08:20:23;5.90;;;5.40;;
11447;SDS011;43755;49.736;8.734;2023-06-26T08:22:24;6.23;;;5.63;;
11447;SDS011;43755;49.736;8.734;2023-06-26T08:24:25;5.90;;;5.47;;
11447;SDS011;43755;49.736;8.734;2023-06-26T08:26:27;6.23;;;5.73;;
11447;SDS011;43755;49.736;8.734;2023-06-26T08:28:28;6.13;;;5.53;;
11447;SDS011;43755;49.736;8.734;2023-06-26T08:30:31;5.83;;;5.43;;
11447;SDS011;43755;49.736;8.734;2023-06-26T08:32:33;6.37;;;5.70;;
11447;SDS011;43755;49.736;8.734;2023-06-26T08:34:34;5.77;;;5.37;;
11447;SDS011;43755;49.736;8.734;2023-06-26T08:36:35;6.77;;;6.07;;
11447;SDS011;43755;49.736;8.734;2023-06-26T08:38:37;6.33;;;5.73;;
11447;SDS011;43755;49.736;8.734;2023-06-26T08:40:41;6.53;;;6.03;;
11447;SDS011;43755;49.736;8.734;2023-06-26T08:42:42;6.83;;;6.13;;
11447;SDS011;43755;49.736;8.734;2023-06-26T08:44:43;6.43;;;5.93;;
11447;SDS011;43755;49.736;8.734;2023-06-26T08:46:46;6.80;;;6.20;;
11447;SDS011;43755;49.736;8.734;2023-06-26T08:48:49;6.80;;;5.50;;
11447;SDS011;43755;49.736;8.734;2023-06-26T08:50:55;6.33;;;5.70;;
11447;SDS011;43755;49.736;8.734;2023-06-26T08:53:03;7.00;;;6.40;;
11447;SDS011;43755;49.736;8.734;2023-06-26T08:55:10;6.23;;;5.63;;
11447;SDS011;43755;49.736;8.734;2023-06-26T08:57:14;6.93;;;5.80;;
11447;SDS011;43755;49.736;8.734;2023-06-26T08:59:18;6.57;;;5.90;;
11447;SDS011;43755;49.736;8.734;2023-06-26T09:01:21;8.77;;;6.23;;
11447;SDS011;43755;49.736;8.734;2023-06-26T09:03:25;7.40;;;5.93;;
11447;SDS011;43755;49.736;8.734;2023-06-26T09:05:27;7.20;;;6.50;;
11447;SDS011;43755;49.736;8.734;2023-06-26T09:07:28;8.27;;;6.00;;
11447;SDS011;43755;49.736;8.734;2023-06-26T09:09:30;6.90;;;6.30;;
11447;SDS011;43755;49.736;8.734;2023-06-26T09:11:31;6.37;;;5.77;;
11447;SDS011;43755;49.736;8.734;2023-06-26T09:13:33;6.53;;;5.80;;
11447;SDS011;43755;49.736;8.734;2023-06-26T09:15:38;6.63;;;6.03;;
11447;SDS011;43755;49.736;8.734;2023-06-26T09:17:42;7.07;;;6.37;;
11447;SDS011;43755;49.736;8.734;2023-06-26T09:19:46;6.10;;;5.60;;
11447;SDS011;43755;49.736;8.734;2023-06-26T09:21:49;6.63;;;5.43;;
11447;SDS011;43755;49.736;8.734;2023-06-26T09:23:52;6.20;;;5.60;;
11447;SDS011;43755;49.736;8.734;2023-06-26T09:25:54;6.63;;;6.03;;
11447;SDS011;43755;49.736;8.734;2023-06-26T09:27:56;6.73;;;5.07;;
11447;SDS011;43755;49.736;8.734;2023-06-26T09:29:58;6.40;;;5.80;;
11447;SDS011;43755;49.736;8.734;2023-06-26T09:31:59;7.23;;;6.50;;
11447;SDS011;43755;49.736;8.734;2023-06-26T09:34:01;9.53;;;6.00;;
11447;SDS011;43755;49.736;8.734;2023-06-26T09:36:06;7.57;;;6.20;;
11447;SDS011;43755;49.736;8.734;2023-06-26T09:38:09;6.60;;;6.00;;
11447;SDS011;43755;49.736;8.734;2023-06-26T09:40:11;10.60;;;6.07;;
11447;SDS011;43755;49.736;8.734;2023-06-26T09:42:14;6.60;;;6.00;;
11447;SDS011;43755;49.736;8.734;2023-06-26T09:44:18;6.53;;;5.83;;
11447;SDS011;43755;49.736;8.734;2023-06-26T09:46:24;7.00;;;6.20;;
11447;SDS011;43755;49.736;8.734;2023-06-26T09:48:26;7.10;;;6.20;;
11447;SDS011;43755;49.736;8.734;2023-06-26T09:50:29;7.30;;;6.50;;
11447;SDS011;43755;49.736;8.734;2023-06-26T09:52:34;8.30;;;6.10;;
11447;SDS011;43755;49.736;8.734;2023-06-26T09:54:36;6.20;;;5.60;;
11447;SDS011;43755;49.736;8.734;2023-06-26T09:56:37;7.67;;;5.67;;
11447;SDS011;43755;49.736;8.734;2023-06-26T09:58:39;6.23;;;5.60;;
11447;SDS011;43755;49.736;8.734;2023-06-26T10:00:42;6.23;;;5.67;;
11447;SDS011;43755;49.736;8.734;2023-06-26T10:02:45;5.97;;;5.20;;
11447;SDS011;43755;49.736;8.734;2023-06-26T10:04:46;5.70;;;5.17;;
11447;SDS011;43755;49.736;8.734;2023-06-26T10:06:48;5.93;;;5.30;;
11447;SDS011;43755;49.736;8.734;2023-06-26T10:08:54;5.53;;;4.80;;
11447;SDS011;43755;49.736;8.734;2023-06-26T10:10:57;12.37;;;5.93;;
11447;SDS011;43755;49.736;8.734;2023-06-26T10:12:59;5.37;;;4.97;;
11447;SDS011;43755;49.736;8.734;2023-06-26T10:15:05;5.07;;;4.57;;
11447;SDS011;43755;49.736;8.734;2023-06-26T10:17:13;6.00;;;5.17;;
11447;SDS011;43755;49.736;8.734;2023-06-26T10:19:18;5.27;;;4.87;;
11447;SDS011;43755;49.736;8.734;2023-06-26T10:21:24;5.37;;;4.87;;
11447;SDS011;43755;49.736;8.734;2023-06-26T10:23:29;5.97;;;5.00;;
11447;SDS011;43755;49.736;8.734;2023-06-26T10:25:34;5.00;;;4.60;;
11447;SDS011;43755;49.736;8.734;2023-06-26T10:27:41;5.20;;;4.70;;
11447;SDS011;43755;49.736;8.734;2023-06-26T10:29:46;7.10;;;4.73;;
11447;SDS011;43755;49.736;8.734;2023-06-26T10:31:50;8.70;;;5.33;;
11447;SDS011;43755;49.736;8.734;2023-06-26T10:33:55;5.67;;;5.07;;
11447;SDS011;43755;49.736;8.734;2023-06-26T10:36:11;5.67;;;5.17;;
11447;SDS011;43755;49.736;8.734;2023-06-26T10:38:14;7.17;;;4.73;;
11447;SDS011;43755;49.736;8.734;2023-06-26T10:40:20;5.07;;;4.67;;
11447;SDS011;43755;49.736;8.734;2023-06-26T10:42:33;5.30;;;4.80;;
11447;SDS011;43755;49.736;8.734;2023-06-26T10:44:39;5.83;;;4.77;;
11447;SDS011;43755;49.736;8.734;2023-06-26T10:46:48;6.50;;;4.70;;
11447;SDS011;43755;49.736;8.734;2023-06-26T10:48:56;5.30;;;4.80;;
11447;SDS011;43755;49.736;8.734;2023-06-26T10:50:58;6.40;;;5.20;;
11447;SDS011;43755;49.736;8.734;2023-06-26T10:53:15;5.33;;;4.83;;
11447;SDS011;43755;49.736;8.734;2023-06-26T10:55:27;5.00;;;4.50;;
11447;SDS011;43755;49.736;8.734;2023-06-26T10:57:30;6.40;;;4.90;;
11447;SDS011;43755;49.736;8.734;2023-06-26T10:59:32;5.37;;;4.90;;
11447;SDS011;43755;49.736;8.734;2023-06-26T11:01:36;5.07;;;4.67;;
11447;SDS011;43755;49.736;8.734;2023-06-26T11:03:43;11.67;;;5.27;;
11447;SDS011;43755;49.736;8.734;2023-06-26T11:05:46;5.73;;;4.73;;
11447;SDS011;43755;49.736;8.734;2023-06-26T11:08:10;5.10;;;4.70;;
11447;SDS011;43755;49.736;8.734;2023-06-26T11:10:16;9.03;;;4.83;;
11447;SDS011;43755;49.736;8.734;2023-06-26T11:14:39;5.33;;;4.77;;
11447;SDS011;43755;49.736;8.734;2023-06-26T11:16:41;5.07;;;4.60;;
11447;SDS011;43755;49.736;8.734;2023-06-26T11:18:44;5.37;;;4.60;;
11447;SDS011;43755;49.736;8.734;2023-06-26T11:20:46;5.20;;;4.60;;
11447;SDS011;43755;49.736;8.734;2023-06-26T11:22:47;4.87;;;4.47;;
11447;SDS011;43755;49.736;8.734;2023-06-26T11:24:53;5.00;;;4.53;;
11447;SDS011;43755;49.736;8.734;2023-06-26T11:26:55;5.13;;;4.40;;
11447;SDS011;43755;49.736;8.734;2023-06-26T11:29:02;7.90;;;4.87;;
11447;SDS011;43755;49.736;8.734;2023-06-26T11:31:04;5.70;;;4.40;;
11447;SDS011;43755;49.736;8.734;2023-06-26T11:33:05;5.03;;;4.53;;
11447;SDS011;43755;49.736;8.734;2023-06-26T11:35:07;4.83;;;4.40;;
11447;SDS011;43755;49.736;8.734;2023-06-26T11:37:10;4.57;;;4.27;;
11447;SDS011;43755;49.736;8.734;2023-06-26T11:39:12;5.00;;;4.60;;
11447;SDS011;43755;49.736;8.734;2023-06-26T11:41:16;7.03;;;4.90;;
11447;SDS011;43755;49.736;8.734;2023-06-26T11:43:18;6.07;;;4.47;;
11447;SDS011;43755;49.736;8.734;2023-06-26T11:45:22;6.80;;;4.90;;
11447;SDS011;43755;49.736;8.734;2023-06-26T11:47:24;5.70;;;5.07;;
11447;SDS011;43755;49.736;8.734;2023-06-26T11:49:27;6.07;;;4.70;;
11447;SDS011;43755;49.736;8.734;2023-06-26T11:51:30;5.63;;;4.40;;
11447;SDS011;43755;49.736;8.734;2023-06-26T11:53:32;5.47;;;4.97;;
11447;SDS011;43755;49.736;8.734;2023-06-26T11:55:41;8.23;;;5.10;;
11447;SDS011;43755;49.736;8.734;2023-06-26T11:57:47;7.97;;;4.70;;
11447;SDS011;43755;49.736;8.734;2023-06-26T11:59:49;7.43;;;4.90;;
11447;SDS011;43755;49.736;8.734;2023-06-26T12:01:53;7.83;;;4.93;;
11447;SDS011;43755;49.736;8.734;2023-06-26T12:03:58;5.30;;;4.57;;
11447;SDS011;43755;49.736;8.734;2023-06-26T12:06:02;5.10;;;4.60;;
11447;SDS011;43755;49.736;8.734;2023-06-26T12:08:06;6.23;;;4.47;;
11447;SDS011;43755;49.736;8.734;2023-06-26T12:10:08;5.23;;;4.73;;
11447;SDS011;43755;49.736;8.734;2023-06-26T12:12:11;4.87;;;4.47;;
11447;SDS011;43755;49.736;8.734;2023-06-26T12:14:15;5.63;;;5.10;;
11447;SDS011;43755;49.736;8.734;2023-06-26T12:16:18;4.90;;;4.43;;
11447;SDS011;43755;49.736;8.734;2023-06-26T12:18:22;5.73;;;4.33;;
11447;SDS011;43755;49.736;8.734;2023-06-26T12:20:25;4.90;;;4.50;;
11447;SDS011;43755;49.736;8.734;2023-06-26T12:22:33;10.43;;;4.77;;